Time;durP1;ratioP1;P1;durP2;ratioP2;P2;SDS_P1;SDS_P2;PMS_P1;PMS_P2;Temp;Humidity;BMP_temperature;BMP_pressure;BME280_temperature;BME280_humidity;BME280_pressure;Samples;Min_cycle;Max_cycle;Signal;HPM_P1;HPM_P2
2021/07/30 00:00:58;;;;;;;6.57;4.25;;;;;;;;;;4954286;28;20569;-70
2021/07/30 00:03:23;;;;;;;6.40;3.85;;;;;;;;;;4936308;28;20403;-71
2021/07/30 00:05:49;;;;;;;5.43;3.60;;;;;;;;;;4968790;28;20046;-70
2021/07/30 00:08:14;;;;;;;7.28;3.90;;;;;;;;;;4954379;28;20086;-70
2021/07/30 00:10:40;;;;;;;6.57;3.47;;;;;;;;;;4972148;28;20034;-70
2021/07/30 00:13:05;;;;;;;5.50;3.55;;;;;;;;;;4972177;28;20037;-70
2021/07/30 00:15:30;;;;;;;7.68;4.10;;;;;;;;;;4970111;28;20613;-69
2021/07/30 00:17:56;;;;;;;6.03;3.78;;;;;;;;;;4971314;28;20026;-69
2021/07/30 00:20:23;;;;;;;7.22;4.15;;;;;;;;;;4969036;28;20038;-70
2021/07/30 00:22:49;;;;;;;5.68;3.80;;;;;;;;;;4972871;28;20066;-69
2021/07/30 00:25:14;;;;;;;7.15;4.03;;;;;;;;;;4970709;28;20046;-70
2021/07/30 00:27:40;;;;;;;7.88;4.18;;;;;;;;;;4971590;28;20396;-70
2021/07/30 00:30:05;;;;;;;7.03;4.28;;;;;;;;;;4957524;28;20064;-70
2021/07/30 00:32:31;;;;;;;5.68;3.90;;;;;;;;;;4950539;28;20062;-71
2021/07/30 00:34:58;;;;;;;6.05;4.20;;;;;;;;;;4969501;28;20066;-71
2021/07/30 00:37:26;;;;;;;6.50;3.70;;;;;;;;;;4970304;28;20026;-71
2021/07/30 00:39:51;;;;;;;;;;;;;;;;;;4953711;28;20035;-71
2021/07/30 00:42:16;;;;;;;5.75;3.65;;;;;;;;;;4973882;28;20306;-71
2021/07/30 00:44:42;;;;;;;6.00;3.58;;;;;;;;;;4970766;28;20045;-71
2021/07/30 00:47:07;;;;;;;6.18;4.07;;;;;;;;;;4970566;28;20480;-70
2021/07/30 00:49:33;;;;;;;7.75;4.50;;;;;;;;;;4969729;28;20122;-70
2021/07/30 00:51:58;;;;;;;7.00;4.55;;;;;;;;;;4951485;28;20077;-70
2021/07/30 00:54:26;;;;;;;5.97;4.13;;;;;;;;;;4970069;28;20126;-70
2021/07/30 00:56:54;;;;;;;5.30;3.60;;;;;;;;;;4969335;28;20400;-70
2021/07/30 00:59:22;;;;;;;5.55;3.58;;;;;;;;;;4973597;28;20034;-71
2021/07/30 01:01:50;;;;;;;6.45;3.80;;;;;;;;;;4971015;28;20035;-71
2021/07/30 01:04:16;;;;;;;9.40;4.30;;;;;;;;;;4955047;28;20507;-70
2021/07/30 01:06:42;;;;;;;5.97;4.00;;;;;;;;;;4970511;28;20078;-71
2021/07/30 01:09:07;;;;;;;5.10;3.67;;;;;;;;;;4971589;28;20039;-71
2021/07/30 01:11:35;;;;;;;8.43;4.15;;;;;;;;;;4969581;28;20372;-71
2021/07/30 01:14:00;;;;;;;10.13;4.60;;;;;;;;;;4970118;28;20039;-71
2021/07/30 01:16:26;;;;;;;7.97;4.28;;;;;;;;;;4969972;28;20685;-71
2021/07/30 01:18:51;;;;;;;9.25;4.65;;;;;;;;;;4967757;28;20069;-71
2021/07/30 01:21:18;;;;;;;7.97;4.10;;;;;;;;;;4967611;28;20469;-71
2021/07/30 01:23:45;;;;;;;8.35;4.18;;;;;;;;;;4969253;28;20038;-70
2021/07/30 01:26:11;;;;;;;6.10;3.78;;;;;;;;;;4969303;28;20444;-71
2021/07/30 01:28:36;;;;;;;8.43;3.90;;;;;;;;;;4951162;28;20113;-70
2021/07/30 01:31:02;;;;;;;6.38;4.03;;;;;;;;;;4970762;28;20046;-72
2021/07/30 01:33:29;;;;;;;7.65;4.43;;;;;;;;;;4954104;28;20049;-71
2021/07/30 01:35:55;;;;;;;6.88;4.30;;;;;;;;;;4974212;28;20390;-71
2021/07/30 01:38:20;;;;;;;8.52;4.18;;;;;;;;;;4955205;28;20097;-71
2021/07/30 01:40:48;;;;;;;7.72;4.10;;;;;;;;;;4968592;28;20491;-71
2021/07/30 01:43:13;;;;;;;6.18;4.03;;;;;;;;;;4970001;28;20077;-72
2021/07/30 01:45:38;;;;;;;9.07;4.47;;;;;;;;;;4969459;28;20388;-70
2021/07/30 01:48:04;;;;;;;6.88;4.07;;;;;;;;;;4940288;28;20141;-71
2021/07/30 01:50:29;;;;;;;6.57;4.10;;;;;;;;;;4951052;28;20380;-72
2021/07/30 01:52:55;;;;;;;5.55;3.83;;;;;;;;;;4971239;28;20074;-71
2021/07/30 01:55:20;;;;;;;7.72;3.85;;;;;;;;;;4972577;28;20084;-71
2021/07/30 01:57:45;;;;;;;5.53;3.55;;;;;;;;;;4956276;28;20526;-72
2021/07/30 02:00:13;;;;;;;5.88;3.72;;;;;;;;;;4952364;28;20047;-71
2021/07/30 02:02:40;;;;;;;6.05;3.67;;;;;;;;;;4970916;28;20035;-71
2021/07/30 02:05:06;;;;;;;5.80;3.70;;;;;;;;;;4952720;28;20033;-72
2021/07/30 02:07:34;;;;;;;6.30;3.80;;;;;;;;;;4970232;28;20498;-70
2021/07/30 02:09:59;;;;;;;8.43;3.70;;;;;;;;;;4968537;28;20037;-70
2021/07/30 02:12:25;;;;;;;5.75;3.60;;;;;;;;;;4954538;28;20035;-70
2021/07/30 02:14:50;;;;;;;8.02;4.22;;;;;;;;;;4967337;28;20074;-72
2021/07/30 02:17:16;;;;;;;7.20;4.68;;;;;;;;;;4970835;28;20093;-70
2021/07/30 02:19:41;;;;;;;7.70;4.65;;;;;;;;;;4966531;28;20237;-72
2021/07/30 02:22:06;;;;;;;6.32;4.07;;;;;;;;;;4952899;28;20065;-71
2021/07/30 02:24:32;;;;;;;5.93;3.72;;;;;;;;;;4968462;28;20110;-70
2021/07/30 02:26:57;;;;;;;5.88;3.70;;;;;;;;;;4952560;28;20424;-71
2021/07/30 02:29:22;;;;;;;5.95;3.40;;;;;;;;;;4968965;28;20031;-71
2021/07/30 02:31:48;;;;;;;7.00;3.60;;;;;;;;;;4968662;28;20403;-71
2021/07/30 02:34:14;;;;;;;6.50;3.92;;;;;;;;;;4968083;28;20126;-71
2021/07/30 02:36:39;;;;;;;9.63;4.15;;;;;;;;;;4973240;28;20056;-70
2021/07/30 02:39:04;;;;;;;6.03;4.10;;;;;;;;;;4972080;28;20053;-72
2021/07/30 02:41:30;;;;;;;6.43;4.05;;;;;;;;;;4977290;28;20067;-71
2021/07/30 02:43:56;;;;;;;7.32;3.90;;;;;;;;;;4979415;28;20049;-71
2021/07/30 02:46:21;;;;;;;6.38;4.10;;;;;;;;;;4978584;28;20884;-70
2021/07/30 02:48:47;;;;;;;7.32;3.80;;;;;;;;;;4957941;28;20034;-71
2021/07/30 02:51:13;;;;;;;5.10;3.40;;;;;;;;;;4956130;28;20039;-70
2021/07/30 02:53:39;;;;;;;5.80;3.90;;;;;;;;;;4956765;28;20039;-70
2021/07/30 02:56:05;;;;;;;6.90;3.83;;;;;;;;;;4975214;28;20467;-70
2021/07/30 02:58:30;;;;;;;5.22;3.45;;;;;;;;;;4974390;28;20038;-70
2021/07/30 03:00:56;;;;;;;6.03;3.70;;;;;;;;;;4973073;28;20158;-70
2021/07/30 03:03:21;;;;;;;9.60;3.95;;;;;;;;;;4955108;28;20039;-70
2021/07/30 03:05:47;;;;;;;8.57;4.03;;;;;;;;;;4974560;28;20479;-70
2021/07/30 03:08:12;;;;;;;5.30;3.40;;;;;;;;;;4973623;28;20035;-70
2021/07/30 03:10:38;;;;;;;5.95;3.60;;;;;;;;;;4972615;28;20057;-70
2021/07/30 03:13:03;;;;;;;7.25;4.00;;;;;;;;;;4972505;28;20098;-71
2021/07/30 03:15:28;;;;;;;6.30;3.60;;;;;;;;;;4972671;28;20523;-71
2021/07/30 03:17:54;;;;;;;5.65;3.80;;;;;;;;;;4971745;28;20109;-70
2021/07/30 03:20:19;;;;;;;5.50;3.55;;;;;;;;;;4971094;28;20034;-70
2021/07/30 03:22:44;;;;;;;6.40;3.80;;;;;;;;;;4968780;28;20035;-70
2021/07/30 03:25:10;;;;;;;7.75;4.00;;;;;;;;;;4971847;28;20031;-70
2021/07/30 03:27:35;;;;;;;6.90;3.88;;;;;;;;;;4971672;28;20034;-70
2021/07/30 03:30:01;;;;;;;5.75;3.95;;;;;;;;;;4958080;28;20038;-69
2021/07/30 03:32:28;;;;;;;8.30;3.95;;;;;;;;;;4972600;28;20031;-69
2021/07/30 03:34:56;;;;;;;6.72;4.25;;;;;;;;;;4953712;28;20060;-70
2021/07/30 03:37:23;;;;;;;6.45;3.75;;;;;;;;;;4970592;28;20047;-71
2021/07/30 03:39:49;;;;;;;;;;;;;;;;;;4976439;28;20053;-70
2021/07/30 03:42:14;;;;;;;5.47;3.83;;;;;;;;;;4955398;28;20306;-70
2021/07/30 03:44:42;;;;;;;5.82;3.47;;;;;;;;;;4952764;28;20027;-70
2021/07/30 03:47:07;;;;;;;5.65;3.70;;;;;;;;;;4971480;28;20294;-70
2021/07/30 03:49:35;;;;;;;6.45;3.88;;;;;;;;;;4975472;28;20035;-70
2021/07/30 03:52:00;;;;;;;;;;;;;;;;;;4970598;28;20101;-70
2021/07/30 03:54:26;;;;;;;7.93;4.38;;;;;;;;;;4954476;28;19920;-70
2021/07/30 03:56:51;;;;;;;6.43;4.25;;;;;;;;;;4971665;28;20031;-70
2021/07/30 03:59:16;;;;;;;8.70;4.35;;;;;;;;;;4972085;28;20038;-70
2021/07/30 04:01:48;;;;;;;6.60;4.22;;;;;;;;;;4952116;28;20391;-70
2021/07/30 04:04:16;;;;;;;6.15;4.03;;;;;;;;;;4954758;28;20066;-70
2021/07/30 04:06:43;;;;;;;7.68;4.32;;;;;;;;;;4941640;28;20155;-70
2021/07/30 04:09:08;;;;;;;;;;;;;;;;;;4971617;28;20034;-70
2021/07/30 04:11:34;;;;;;;7.28;4.20;;;;;;;;;;4967694;28;19945;-70
2021/07/30 04:13:59;;;;;;;8.05;4.10;;;;;;;;;;4953772;28;20030;-70
2021/07/30 04:16:24;;;;;;;5.82;3.97;;;;;;;;;;4954014;28;20162;-71
2021/07/30 04:18:53;;;;;;;6.00;3.90;;;;;;;;;;4968072;28;20042;-70
2021/07/30 04:21:18;;;;;;;6.18;4.03;;;;;;;;;;4951470;28;20525;-70
2021/07/30 04:23:43;;;;;;;8.45;4.20;;;;;;;;;;4953801;28;20113;-70
2021/07/30 04:26:09;;;;;;;7.35;3.90;;;;;;;;;;4971717;28;20129;-71
2021/07/30 04:28:34;;;;;;;7.20;4.20;;;;;;;;;;4954383;28;20034;-70
2021/07/30 04:31:02;;;;;;;7.38;4.22;;;;;;;;;;4954797;28;20022;-71
2021/07/30 04:33:27;;;;;;;7.32;4.07;;;;;;;;;;4968380;28;20035;-70
2021/07/30 04:35:53;;;;;;;6.95;4.10;;;;;;;;;;4969158;28;20038;-70
2021/07/30 04:38:18;;;;;;;6.22;3.92;;;;;;;;;;4953833;28;20027;-71
2021/07/30 04:40:43;;;;;;;6.97;4.30;;;;;;;;;;4970124;28;20037;-71
2021/07/30 04:43:09;;;;;;;6.97;4.03;;;;;;;;;;4934558;28;20045;-70
2021/07/30 04:45:36;;;;;;;7.18;4.07;;;;;;;;;;4970676;28;20415;-70
2021/07/30 04:48:02;;;;;;;6.90;3.80;;;;;;;;;;4958742;28;20030;-70
2021/07/30 04:50:27;;;;;;;6.13;3.83;;;;;;;;;;4953471;28;20039;-71
2021/07/30 04:52:55;;;;;;;6.50;4.10;;;;;;;;;;4954977;28;20531;-70
2021/07/30 04:55:23;;;;;;;6.70;3.92;;;;;;;;;;4972402;28;20467;-70
2021/07/30 04:57:48;;;;;;;6.75;4.03;;;;;;;;;;4954464;28;20035;-70
2021/07/30 05:00:14;;;;;;;8.00;4.70;;;;;;;;;;4952668;28;20092;-71
2021/07/30 05:02:39;;;;;;;5.90;3.88;;;;;;;;;;4953544;28;20050;-70
2021/07/30 05:05:05;;;;;;;8.85;4.30;;;;;;;;;;4967958;28;20034;-70
2021/07/30 05:07:30;;;;;;;7.97;4.75;;;;;;;;;;4972408;28;20037;-71
2021/07/30 05:09:55;;;;;;;6.20;4.40;;;;;;;;;;4978631;28;20488;-70
2021/07/30 05:12:21;;;;;;;8.57;4.40;;;;;;;;;;4978066;28;20072;-70
2021/07/30 05:14:46;;;;;;;7.20;4.28;;;;;;;;;;4970643;28;20102;-70
2021/07/30 05:17:11;;;;;;;6.13;4.00;;;;;;;;;;4952567;28;20459;-70
2021/07/30 05:19:39;;;;;;;6.82;4.10;;;;;;;;;;4967468;28;20070;-70
2021/07/30 05:22:04;;;;;;;6.75;4.30;;;;;;;;;;4972267;28;20470;-70
2021/07/30 05:24:30;;;;;;;7.00;4.22;;;;;;;;;;4971706;28;20038;-70
2021/07/30 05:26:56;;;;;;;8.70;4.50;;;;;;;;;;4970956;28;20078;-70
2021/07/30 05:29:22;;;;;;;7.35;4.68;;;;;;;;;;4970625;28;20907;-71
2021/07/30 05:31:47;;;;;;;6.03;4.03;;;;;;;;;;4979382;28;20041;-71
2021/07/30 05:34:12;;;;;;;9.07;4.20;;;;;;;;;;4976513;28;20037;-71
2021/07/30 05:36:38;;;;;;;6.05;3.53;;;;;;;;;;4950885;28;20360;-71
2021/07/30 05:39:03;;;;;;;9.57;4.28;;;;;;;;;;4951731;28;20478;-72
2021/07/30 05:41:28;;;;;;;6.70;3.78;;;;;;;;;;4970016;28;20082;-71
2021/07/30 05:43:54;;;;;;;7.88;3.95;;;;;;;;;;4969335;28;20038;-71
2021/07/30 05:46:19;;;;;;;9.73;4.20;;;;;;;;;;4954720;28;20057;-71
2021/07/30 05:48:45;;;;;;;5.75;3.75;;;;;;;;;;4969369;28;20052;-71
2021/07/30 05:51:11;;;;;;;5.10;3.35;;;;;;;;;;4936595;28;20031;-72
2021/07/30 05:53:36;;;;;;;5.63;3.83;;;;;;;;;;4951609;28;20045;-72
2021/07/30 05:56:02;;;;;;;7.65;3.78;;;;;;;;;;4967395;28;20031;-72
2021/07/30 05:58:27;;;;;;;8.38;3.92;;;;;;;;;;4956085;28;20168;-71
2021/07/30 06:00:53;;;;;;;5.97;3.72;;;;;;;;;;4970384;28;20038;-71
2021/07/30 06:03:18;;;;;;;7.00;3.95;;;;;;;;;;4970086;28;20031;-71
2021/07/30 06:05:43;;;;;;;6.50;4.00;;;;;;;;;;4969774;28;20108;-72
2021/07/30 06:08:09;;;;;;;7.55;4.13;;;;;;;;;;4969028;28;20106;-71
2021/07/30 06:10:34;;;;;;;6.60;4.10;;;;;;;;;;4972788;28;20026;-72
2021/07/30 06:13:02;;;;;;;8.90;3.83;;;;;;;;;;4954815;28;20480;-72
2021/07/30 06:15:27;;;;;;;9.52;3.50;;;;;;;;;;4977564;28;20030;-72
2021/07/30 06:17:53;;;;;;;6.80;3.78;;;;;;;;;;4976384;28;20499;-72
2021/07/30 06:20:18;;;;;;;7.05;3.85;;;;;;;;;;4971958;28;20034;-72
2021/07/30 06:22:44;;;;;;;8.02;4.22;;;;;;;;;;4942492;28;20061;-68
2021/07/30 06:25:10;;;;;;;7.18;3.55;;;;;;;;;;4963663;28;20488;-68
2021/07/30 06:27:35;;;;;;;7.85;3.90;;;;;;;;;;4973237;28;20030;-68
2021/07/30 06:30:01;;;;;;;5.85;3.67;;;;;;;;;;4971262;28;20439;-68
2021/07/30 06:32:26;;;;;;;5.88;3.42;;;;;;;;;;4969640;28;20105;-68
2021/07/30 06:34:52;;;;;;;7.93;3.65;;;;;;;;;;4967943;28;20038;-68
2021/07/30 06:37:17;;;;;;;6.88;4.07;;;;;;;;;;4972709;28;20571;-67
2021/07/30 06:39:42;;;;;;;7.95;4.20;;;;;;;;;;4971649;28;20372;-67
2021/07/30 06:42:10;;;;;;;5.88;3.55;;;;;;;;;;4944198;28;20050;-69
2021/07/30 06:44:38;;;;;;;6.15;3.80;;;;;;;;;;4968681;28;20080;-68
2021/07/30 06:47:04;;;;;;;5.93;3.40;;;;;;;;;;4969441;28;20046;-67
2021/07/30 06:49:31;;;;;;;8.13;4.00;;;;;;;;;;4953403;28;20031;-68
2021/07/30 06:51:57;;;;;;;5.65;3.17;;;;;;;;;;4934093;28;20125;-69
2021/07/30 06:54:23;;;;;;;6.85;3.40;;;;;;;;;;4948812;28;20118;-71
2021/07/30 06:56:49;;;;;;;5.93;3.40;;;;;;;;;;4952707;28;20050;-69
2021/07/30 06:59:16;;;;;;;5.90;3.13;;;;;;;;;;4968966;28;20035;-69
2021/07/30 07:01:42;;;;;;;6.53;3.67;;;;;;;;;;4952697;28;20046;-69
2021/07/30 07:04:09;;;;;;;5.60;3.30;;;;;;;;;;4967970;28;20053;-69
2021/07/30 07:06:35;;;;;;;11.52;3.45;;;;;;;;;;4970835;28;20042;-69
2021/07/30 07:09:02;;;;;;;5.38;3.00;;;;;;;;;;4968832;28;20030;-71
2021/07/30 07:11:28;;;;;;;5.38;3.08;;;;;;;;;;4969781;28;20042;-68
2021/07/30 07:13:53;;;;;;;4.70;2.90;;;;;;;;;;4948790;28;20034;-69
2021/07/30 07:16:21;;;;;;;8.13;3.53;;;;;;;;;;4951355;28;20057;-69
2021/07/30 07:18:46;;;;;;;6.43;3.13;;;;;;;;;;4969306;28;20391;-68
2021/07/30 07:21:13;;;;;;;6.70;3.20;;;;;;;;;;4970632;28;20038;-68
2021/07/30 07:23:39;;;;;;;;;;;;;;;;;;4951055;28;20138;-69
2021/07/30 07:26:04;;;;;;;5.63;2.87;;;;;;;;;;4965592;28;20378;-69
2021/07/30 07:28:32;;;;;;;6.90;3.13;;;;;;;;;;4967605;28;20153;-68
2021/07/30 07:30:57;;;;;;;5.18;3.20;;;;;;;;;;4970713;28;20511;-69
2021/07/30 07:33:22;;;;;;;7.10;3.22;;;;;;;;;;4965521;28;20035;-69
2021/07/30 07:35:48;;;;;;;4.82;3.03;;;;;;;;;;4946904;28;20070;-68
2021/07/30 07:38:15;;;;;;;6.93;2.80;;;;;;;;;;4970022;28;20027;-69
2021/07/30 07:40:44;;;;;;;6.78;3.42;;;;;;;;;;4968348;28;20049;-68
2021/07/30 07:43:09;;;;;;;4.75;3.10;;;;;;;;;;4970673;28;20030;-70
2021/07/30 07:45:34;;;;;;;5.10;3.20;;;;;;;;;;4951508;28;20050;-69
2021/07/30 07:48:00;;;;;;;5.38;2.83;;;;;;;;;;4970205;28;20035;-70
2021/07/30 07:50:25;;;;;;;6.13;3.40;;;;;;;;;;4966946;28;20030;-69
2021/07/30 07:52:50;;;;;;;5.50;3.33;;;;;;;;;;4965249;28;20027;-68
2021/07/30 07:55:18;;;;;;;5.43;3.53;;;;;;;;;;4953987;28;20031;-67
2021/07/30 07:57:44;;;;;;;4.95;3.28;;;;;;;;;;4969092;28;20038;-68
2021/07/30 08:00:09;;;;;;;6.00;3.60;;;;;;;;;;4966270;28;20855;-67
2021/07/30 08:02:37;;;;;;;5.72;3.10;;;;;;;;;;4967145;28;20499;-68
2021/07/30 08:05:02;;;;;;;7.15;3.40;;;;;;;;;;4968379;28;20105;-68
2021/07/30 08:07:28;;;;;;;5.93;3.58;;;;;;;;;;4966341;28;20052;-68
2021/07/30 08:09:53;;;;;;;5.70;3.40;;;;;;;;;;4968081;28;20372;-68
2021/07/30 08:12:19;;;;;;;5.18;3.42;;;;;;;;;;4966691;28;20030;-68
2021/07/30 08:14:44;;;;;;;5.38;3.55;;;;;;;;;;4967568;28;20088;-69
2021/07/30 08:17:10;;;;;;;8.98;3.70;;;;;;;;;;4950325;28;20452;-68
2021/07/30 08:19:35;;;;;;;6.68;3.53;;;;;;;;;;4948190;28;20455;-69
2021/07/30 08:22:01;;;;;;;5.30;3.30;;;;;;;;;;4950512;28;20487;-68
2021/07/30 08:24:27;;;;;;;6.13;3.72;;;;;;;;;;4966575;28;20105;-68
2021/07/30 08:26:52;;;;;;;5.75;3.65;;;;;;;;;;4965746;28;20046;-66
2021/07/30 08:29:18;;;;;;;5.68;3.60;;;;;;;;;;4952159;28;20101;-68
2021/07/30 08:31:43;;;;;;;7.65;3.88;;;;;;;;;;4953990;28;20038;-67
2021/07/30 08:34:10;;;;;;;7.05;3.42;;;;;;;;;;4966851;28;20026;-67
2021/07/30 08:36:36;;;;;;;5.80;3.45;;;;;;;;;;4950734;28;20104;-69
2021/07/30 08:39:01;;;;;;;6.88;3.50;;;;;;;;;;4967552;28;20117;-68
2021/07/30 08:41:27;;;;;;;6.18;3.58;;;;;;;;;;4970012;28;20031;-69
2021/07/30 08:43:53;;;;;;;6.55;3.45;;;;;;;;;;4968980;28;20027;-68
2021/07/30 08:46:24;;;;;;;6.03;3.47;;;;;;;;;;4950891;28;20034;-68
2021/07/30 08:48:49;;;;;;;9.13;3.70;;;;;;;;;;4938375;28;20116;-67
2021/07/30 08:51:16;;;;;;;6.25;3.90;;;;;;;;;;4966715;28;20605;-70
2021/07/30 08:53:42;;;;;;;5.97;3.65;;;;;;;;;;4970318;28;20025;-67
2021/07/30 08:56:08;;;;;;;6.00;3.60;;;;;;;;;;4968870;28;20030;-67
2021/07/30 08:58:34;;;;;;;5.97;3.72;;;;;;;;;;4941173;28;20481;-66
2021/07/30 09:00:59;;;;;;;5.13;3.50;;;;;;;;;;4963473;28;20046;-66
2021/07/30 09:03:40;;;;;;;6.65;4.18;;;;;;;;;;4947133;28;20077;-67
2021/07/30 09:06:12;;;;;;;5.93;3.65;;;;;;;;;;4967340;28;20061;-66
2021/07/30 09:08:37;;;;;;;8.65;4.20;;;;;;;;;;4963719;28;20676;-68
2021/07/30 09:11:03;;;;;;;4.68;3.28;;;;;;;;;;4965780;28;20041;-66
2021/07/30 09:13:29;;;;;;;8.65;3.90;;;;;;;;;;4963719;28;20105;-67
2021/07/30 09:16:02;;;;;;;5.45;3.65;;;;;;;;;;4965854;28;20529;-66
2021/07/30 09:18:47;;;;;;;6.38;3.90;;;;;;;;;;4959727;28;20038;-69
2021/07/30 09:21:30;;;;;;;6.03;3.63;;;;;;;;;;4960777;28;20383;-68
2021/07/30 09:23:57;;;;;;;7.07;3.78;;;;;;;;;;4964177;28;20727;-67
2021/07/30 09:26:34;;;;;;;8.68;4.00;;;;;;;;;;4965073;28;20495;-67
2021/07/30 09:29:04;;;;;;;5.75;3.78;;;;;;;;;;4947737;28;20039;-67
2021/07/30 09:31:36;;;;;;;8.68;4.00;;;;;;;;;;4967191;28;20085;-67
2021/07/30 09:34:15;;;;;;;6.80;3.33;;;;;;;;;;4961989;28;20555;-68
2021/07/30 09:36:44;;;;;;;5.97;3.58;;;;;;;;;;4935701;28;20197;-69
2021/07/30 09:39:09;;;;;;;5.75;3.38;;;;;;;;;;4963759;28;20035;-68
2021/07/30 09:41:35;;;;;;;5.43;3.30;;;;;;;;;;4963078;28;20491;-67
2021/07/30 09:44:07;;;;;;;5.65;3.75;;;;;;;;;;4963598;28;20416;-67
2021/07/30 09:46:35;;;;;;;7.85;3.83;;;;;;;;;;4960574;28;20138;-67
2021/07/30 09:49:01;;;;;;;6.55;3.63;;;;;;;;;;4965610;28;20562;-67
2021/07/30 09:51:27;;;;;;;7.20;4.30;;;;;;;;;;4965649;28;20027;-69
2021/07/30 09:53:54;;;;;;;6.18;4.00;;;;;;;;;;4946635;28;20069;-68
2021/07/30 09:56:21;;;;;;;8.30;4.05;;;;;;;;;;4964842;28;20035;-69
2021/07/30 09:58:47;;;;;;;9.13;4.30;;;;;;;;;;4948147;28;20030;-68
2021/07/30 10:01:18;;;;;;;6.67;4.17;;;;;;;;;;4962143;28;20037;-70
2021/07/30 10:03:45;;;;;;;8.52;4.50;;;;;;;;;;4962074;28;20437;-68
2021/07/30 10:06:13;;;;;;;9.55;4.18;;;;;;;;;;4963110;28;20423;-67
2021/07/30 10:08:39;;;;;;;5.53;3.90;;;;;;;;;;4966256;28;20492;-67
2021/07/30 10:11:05;;;;;;;7.72;4.20;;;;;;;;;;4962256;28;20050;-67
2021/07/30 10:13:36;;;;;;;7.63;4.30;;;;;;;;;;4960015;28;20166;-67
2021/07/30 10:16:02;;;;;;;7.78;3.97;;;;;;;;;;4963388;28;20041;-67
2021/07/30 10:18:28;;;;;;;6.40;4.13;;;;;;;;;;4962933;28;20504;-67
2021/07/30 10:20:58;;;;;;;8.27;4.00;;;;;;;;;;4960478;28;20526;-67
2021/07/30 10:23:24;;;;;;;14.75;4.32;;;;;;;;;;4963400;28;20029;-68
2021/07/30 10:25:52;;;;;;;7.80;4.10;;;;;;;;;;4945405;28;20422;-68
2021/07/30 10:28:25;;;;;;;8.18;4.32;;;;;;;;;;4964231;28;20041;-68
2021/07/30 10:30:54;;;;;;;8.23;4.60;;;;;;;;;;4966236;28;20031;-68
2021/07/30 10:33:37;;;;;;;6.60;4.38;;;;;;;;;;4937392;28;20522;-68
2021/07/30 10:36:04;;;;;;;9.05;4.25;;;;;;;;;;4967859;28;20031;-67
2021/07/30 10:38:32;;;;;;;7.03;4.20;;;;;;;;;;4964497;28;20034;-69
2021/07/30 10:40:57;;;;;;;9.73;4.30;;;;;;;;;;4963420;28;20027;-68
2021/07/30 10:43:23;;;;;;;9.87;4.80;;;;;;;;;;4944924;28;20034;-66
2021/07/30 10:46:00;;;;;;;6.57;4.23;;;;;;;;;;4949845;28;20039;-68
2021/07/30 10:48:29;;;;;;;6.47;4.28;;;;;;;;;;4965496;28;20070;-68
2021/07/30 10:51:13;;;;;;;7.88;4.68;;;;;;;;;;4965804;28;20447;-69
2021/07/30 10:53:38;;;;;;;7.88;4.45;;;;;;;;;;4964294;28;20499;-67
2021/07/30 10:56:07;;;;;;;7.77;4.60;;;;;;;;;;4966778;28;20135;-69
2021/07/30 10:58:55;;;;;;;7.25;4.57;;;;;;;;;;4968672;28;20444;-69
2021/07/30 11:01:44;;;;;;;8.63;4.70;;;;;;;;;;4968730;28;20031;-68
2021/07/30 11:04:12;;;;;;;6.85;4.40;;;;;;;;;;4962019;28;20195;-69
2021/07/30 11:06:41;;;;;;;6.40;4.28;;;;;;;;;;4971660;28;20026;-69
2021/07/30 11:09:09;;;;;;;7.32;4.47;;;;;;;;;;4971141;28;20027;-68
2021/07/30 11:11:34;;;;;;;7.00;4.32;;;;;;;;;;4949281;28;20488;-69
2021/07/30 11:13:59;;;;;;;7.97;4.60;;;;;;;;;;4965531;28;20526;-68
2021/07/30 11:16:25;;;;;;;7.77;4.60;;;;;;;;;;4953336;28;20034;-69
2021/07/30 11:18:50;;;;;;;10.87;5.03;;;;;;;;;;4970970;28;20041;-68
2021/07/30 11:21:15;;;;;;;6.03;3.90;;;;;;;;;;4967644;28;20089;-68
2021/07/30 11:23:44;;;;;;;6.10;4.53;;;;;;;;;;4971243;28;20031;-68
2021/07/30 11:26:12;;;;;;;6.78;4.65;;;;;;;;;;4941181;28;20039;-69
2021/07/30 11:28:37;;;;;;;6.93;4.53;;;;;;;;;;4972984;28;20605;-67
2021/07/30 11:31:03;;;;;;;6.27;4.70;;;;;;;;;;4970495;28;20027;-69
2021/07/30 11:33:28;;;;;;;6.50;4.30;;;;;;;;;;4970415;28;20035;-66
2021/07/30 11:36:08;;;;;;;9.87;4.50;;;;;;;;;;4971217;28;20515;-67
2021/07/30 11:38:48;;;;;;;7.93;4.20;;;;;;;;;;4969637;28;20027;-68
2021/07/30 11:41:17;;;;;;;8.10;4.22;;;;;;;;;;4953223;28;20035;-66
2021/07/30 11:44:00;;;;;;;5.95;4.10;;;;;;;;;;4969923;28;20040;-69
2021/07/30 11:46:26;;;;;;;8.05;4.10;;;;;;;;;;4969357;28;20110;-68
2021/07/30 11:48:52;;;;;;;6.32;4.20;;;;;;;;;;4969684;28;20027;-68
2021/07/30 11:51:20;;;;;;;8.50;4.45;;;;;;;;;;4974283;28;20038;-69
2021/07/30 11:53:50;;;;;;;6.15;3.90;;;;;;;;;;4950629;28;20353;-69
2021/07/30 11:56:19;;;;;;;5.57;3.88;;;;;;;;;;4967723;28;20034;-70
2021/07/30 11:58:59;;;;;;;7.05;4.00;;;;;;;;;;4970073;28;20469;-68
2021/07/30 12:01:25;;;;;;;7.88;4.30;;;;;;;;;;4970473;28;20186;-66
2021/07/30 12:04:09;;;;;;;7.88;3.67;;;;;;;;;;4970464;28;20136;-68
2021/07/30 12:06:37;;;;;;;11.32;4.38;;;;;;;;;;4967224;28;20131;-66
2021/07/30 12:09:06;;;;;;;11.95;4.40;;;;;;;;;;4970713;28;20502;-66
2021/07/30 12:11:31;;;;;;;10.02;4.15;;;;;;;;;;4949612;28;20038;-66
2021/07/30 12:13:56;;;;;;;7.38;4.40;;;;;;;;;;4949913;28;20037;-66
2021/07/30 12:16:22;;;;;;;9.07;4.03;;;;;;;;;;4970540;28;20041;-66
2021/07/30 12:18:47;;;;;;;6.43;3.92;;;;;;;;;;4966237;28;20746;-69
2021/07/30 12:21:13;;;;;;;7.40;4.25;;;;;;;;;;4970885;28;20030;-69
2021/07/30 12:23:38;;;;;;;7.38;4.65;;;;;;;;;;4964252;28;20045;-70
2021/07/30 12:26:03;;;;;;;5.77;4.10;;;;;;;;;;4969521;28;20073;-69
2021/07/30 12:28:39;;;;;;;6.20;4.25;;;;;;;;;;4965682;28;20261;-66
2021/07/30 12:31:11;;;;;;;8.32;4.65;;;;;;;;;;4968477;28;20045;-67
2021/07/30 12:33:36;;;;;;;7.45;4.35;;;;;;;;;;4954379;28;20070;-73
2021/07/30 12:36:11;;;;;;;6.63;4.50;;;;;;;;;;4970979;28;20165;-71
2021/07/30 12:38:50;;;;;;;9.27;4.30;;;;;;;;;;4969737;28;20396;-68
2021/07/30 12:41:16;;;;;;;9.77;4.80;;;;;;;;;;4965542;28;20061;-65
2021/07/30 12:43:45;;;;;;;15.60;5.60;;;;;;;;;;4969824;28;20031;-66
2021/07/30 12:46:29;;;;;;;5.53;3.80;;;;;;;;;;4970823;28;20035;-66
2021/07/30 12:48:54;;;;;;;6.80;4.18;;;;;;;;;;4953775;28;20037;-66
2021/07/30 12:51:24;;;;;;;7.13;4.40;;;;;;;;;;4951303;28;20027;-65
2021/07/30 12:53:58;;;;;;;8.25;4.60;;;;;;;;;;4953378;28;20685;-65
2021/07/30 12:56:26;;;;;;;7.22;4.38;;;;;;;;;;4967067;28;20457;-66
2021/07/30 12:58:51;;;;;;;;;;;;;;;;;;4971311;28;20038;-66
2021/07/30 13:01:16;;;;;;;5.97;4.40;;;;;;;;;;4951106;28;19918;-66
2021/07/30 13:03:42;;;;;;;;;;;;;;;;;;4972822;28;20034;-66
2021/07/30 13:06:07;;;;;;;;;;;;;;;;;;4956765;28;20397;-66
2021/07/30 13:08:34;;;;;;;6.13;4.30;;;;;;;;;;4954452;28;19921;-66
2021/07/30 13:11:01;;;;;;;7.40;4.30;;;;;;;;;;4970077;28;20291;-66
2021/07/30 13:13:28;;;;;;;6.18;4.25;;;;;;;;;;4966787;28;20097;-67
2021/07/30 13:15:54;;;;;;;6.18;4.18;;;;;;;;;;4969057;28;20034;-65
2021/07/30 13:18:19;;;;;;;7.45;4.28;;;;;;;;;;4954091;28;20112;-66
2021/07/30 13:20:46;;;;;;;6.00;4.10;;;;;;;;;;4951133;28;20038;-66
2021/07/30 13:23:11;;;;;;;6.95;4.03;;;;;;;;;;4970284;28;20281;-66
2021/07/30 13:25:39;;;;;;;7.60;4.27;;;;;;;;;;4968768;28;20404;-67
2021/07/30 13:28:05;;;;;;;8.68;4.75;;;;;;;;;;4949989;28;20276;-66
2021/07/30 13:30:33;;;;;;;7.88;4.60;;;;;;;;;;4971440;28;20093;-67
2021/07/30 13:33:02;;;;;;;7.82;4.60;;;;;;;;;;4954478;28;20073;-66
2021/07/30 13:35:31;;;;;;;6.53;4.32;;;;;;;;;;4970825;28;20049;-66
2021/07/30 13:37:57;;;;;;;9.10;4.53;;;;;;;;;;4966933;28;20031;-66
2021/07/30 13:40:25;;;;;;;10.05;4.60;;;;;;;;;;4952317;28;20037;-66
2021/07/30 13:42:54;;;;;;;6.43;3.72;;;;;;;;;;4951704;28;20499;-68
2021/07/30 13:45:19;;;;;;;5.85;3.90;;;;;;;;;;4969392;28;20027;-67
2021/07/30 13:47:45;;;;;;;5.53;3.85;;;;;;;;;;4967627;28;20049;-69
2021/07/30 13:50:10;;;;;;;7.40;4.15;;;;;;;;;;4966657;28;20017;-66
2021/07/30 13:52:35;;;;;;;6.68;4.18;;;;;;;;;;4969090;28;20025;-66
2021/07/30 13:55:01;;;;;;;6.90;4.00;;;;;;;;;;4969124;28;20484;-67
2021/07/30 13:57:26;;;;;;;8.20;4.40;;;;;;;;;;4967905;28;20446;-67
2021/07/30 13:59:52;;;;;;;7.03;4.10;;;;;;;;;;4968641;28;20471;-67
2021/07/30 14:02:17;;;;;;;6.65;4.25;;;;;;;;;;4968889;28;20078;-66
2021/07/30 14:04:42;;;;;;;5.88;4.30;;;;;;;;;;4963509;28;20058;-66
2021/07/30 14:07:08;;;;;;;7.78;4.40;;;;;;;;;;4968616;28;20314;-67
2021/07/30 14:09:36;;;;;;;6.30;3.80;;;;;;;;;;4949945;28;20455;-68
2021/07/30 14:12:02;;;;;;;6.43;4.10;;;;;;;;;;4966769;28;20042;-66
2021/07/30 14:14:30;;;;;;;6.40;3.80;;;;;;;;;;4968581;28;20026;-67
2021/07/30 14:16:55;;;;;;;6.15;4.00;;;;;;;;;;4968014;28;20034;-66
2021/07/30 14:19:21;;;;;;;6.10;4.00;;;;;;;;;;4967907;28;20121;-66
2021/07/30 14:21:46;;;;;;;8.95;4.00;;;;;;;;;;4967652;28;20023;-66
2021/07/30 14:24:11;;;;;;;5.82;3.95;;;;;;;;;;4952160;28;20503;-66
2021/07/30 14:26:37;;;;;;;6.10;4.15;;;;;;;;;;4966113;28;20722;-66
2021/07/30 14:29:02;;;;;;;6.00;3.50;;;;;;;;;;4949791;28;20097;-67
2021/07/30 14:31:30;;;;;;;5.88;3.95;;;;;;;;;;4976941;28;20096;-66
2021/07/30 14:33:55;;;;;;;7.40;4.10;;;;;;;;;;4976115;28;20035;-66
2021/07/30 14:36:20;;;;;;;5.68;4.10;;;;;;;;;;4971962;28;20049;-66
2021/07/30 14:38:48;;;;;;;8.88;4.30;;;;;;;;;;4973599;28;20497;-69
2021/07/30 14:41:17;;;;;;;6.97;4.10;;;;;;;;;;4934001;28;20038;-68
2021/07/30 14:43:43;;;;;;;7.05;4.13;;;;;;;;;;4951401;28;20038;-66